Terminal Aerodrome Forecast
Issued by NWS

Home | Current Version | Previous Version | Text Only | Print | Product List | Glossary On
Versions: 1 2 3 4 5 6 7 8 9 10 11 12 13 14 15 16 17
000
FTUS41 KBOX 231122
TAFFMH
TAF
KFMH 231122Z 2312/2412 21007KT 3SM BR BKN003
     FM231500 21010KT P6SM BKN020
     FM231600 21011G18KT P6SM BKN050
     FM240000 21015G23KT P6SM OVC008
     FM240100 22013G21KT 2SM BR VCSH OVC008=

USA.gov is the U.S. government's official web portal to all federal, state and local government web resources and services.